Alpine, TX (79830)

2:24 AM CDT on March 26, 2017 (GMT -0500)
| | Change Station
Active Advisory: Fire Weather Watch

Elev -9999 ft 0.00 °N, 0.00 °E | Updated

Clear
Clear
°F
Feels Like °F
N
Wind Variable Wind from North
Gusts mph

Today
High -- | Low -- °F
--% Chance of Precip.
Yesterday
High -- | Low -- °F
Precip. -- in
Pressure 29.95 in
Visibility 10.0 miles
Clouds Clear
Dew Point Not available.
Humidity Not available.
Rainfall --
Snow Depth Not available.
7:50 AM 8:10 PM
Waning Crescent, 4% visible
METAR KE38 260715Z AUTO 00000KT 10SM CLR 16/M04 A2995 RMK AO2 T01601043
Pressure 29.95 in
Visibility 10.0 miles
Clouds Clear
Dew Point Not available.
Humidity Not available.
Rainfall --
Snow Depth Not available.
7:50 AM 8:10 PM
Waning Crescent, 4% visible
METAR KE38 260715Z AUTO 00000KT 10SM CLR 16/M04 A2995 RMK AO2 T01601043

Get Your Daily Forecast Email!

Thanks for signing up!

Be on the lookout for a verification email in your inbox.

You'll start receiving severe weather alerts in your inbox..

×

10-Day Weather Forecast

Almanac

Astronomy

Mar. 26, 2017 Rise Set
Actual Time
Civil Twilight
Nautical Twilight
Astronomical Twilight
Moon
Length of Visible Light
Length of Day
Tomorrow will be .
, % of the Moon is Illuminated

Today's Extremes

State Highs State Lows

Community

WunderPhotos

Upload Photos

1,962,540 photos uploaded!

WunderBlog® & News

Nearby

Air Quality

  Air Quality AQ Index Pollutant
Not available.

Snow Depth

Station Depth Elevation

Earthquake Activity

City Distance Mag. Time & Date
Minimum magnitude displayed is 2.5.

Earthquake Activity

City Distance Mag. Time & Date
Minimum magnitude displayed is 2.5.

Coastal Water Temperatures

Place Temperature

Stations

Nearby Weather Stations

Station Location Temp. Windchill Dew Point Humidity Wind Precip. Elev Updated Type
                   

Watches & Warnings

Fire Weather Watch
Issued: 1:08 PM MDT Mar. 25, 2017 – National Weather Service

... Fire Weather Watch now in effect from Sunday afternoon through
Sunday evening for relative humidity of 15% or less, 20 foot winds
of 20 mph or more, and high to extreme fire danger...

* humidity... 5 to 15%.

* Wind... mountains... west 20 to 35 mph with higher gusts.
Plains... west 20 to 30 mph with higher gusts.

* Impacts... any fires that develop will likely spread rapidly.
Outdoor burning is not recommended.

Precautionary/preparedness actions...

A Fire Weather Watch means that critical fire weather conditions
are forecast to occur. Listen for later forecasts and possible
red flag warnings.